This is the latest recevied weather packets stored in our database for station/object LKLB. If no packets are shown the sender has not sent any weather packets the latest 1 day(s).
| Time | Temp. | Humidity | Pressure | Rain* | Wind** | Luminosity | Snow |
|---|---|---|---|---|---|---|---|
| 1778026748 | 12.22° C | 93% | - | - | 0.89 m/s, 350° | - | - |
| 1778023148 | 12.78° C | 82% | - | - | 3.13 m/s, 310° | - | - |
| 1778019549 | 15° C | 82% | - | - | 5.36 m/s, 230° | - | - |
| 1778015997 | 15° C | 82% | - | - | 2.24 m/s, 280° | - | - |
| 1778012365 | 15° C | 77% | - | - | 0.89 m/s, 300° | - | - |
| 1778008782 | 15° C | 82% | - | - | 2.24 m/s, 280° | - | - |
| 1778005165 | 17.78° C | 67% | - | - | 2.24 m/s, 320° | - | - |
| 1778001550 | 18.89° C | 63% | - | - | 2.24 m/s, 360° | - | - |
| 1777998031 | 20° C | 60% | - | - | 2.24 m/s, 350° | - | - |
| 1777994364 | 21.11° C | 52% | - | - | 2.24 m/s, 340° | - | - |
| 1777990766 | 22.78° C | 43% | - | - | 3.13 m/s, 320° | - | - |
| 1777987151 | 22.78° C | 43% | - | - | 2.24 m/s, 330° | - | - |
| 1777983549 | 22.22° C | 46% | - | - | 3.13 m/s, 320° | - | - |
| 1777979949 | 21.11° C | 43% | - | - | 3.13 m/s, 300° | - | - |
| 1777976350 | 21.11° C | 43% | - | - | 3.13 m/s, 280° | - | - |
| 1777972749 | 21.11° C | 37% | - | - | 0.89 m/s, 200° | - | - |
| 1777969150 | 18.89° C | 42% | - | - | 2.24 m/s, 190° | - | - |
| 1777965549 | 17.22° C | 55% | - | - | 0.89 m/s, 140° | - | - |
| 1777961950 | 15° C | 72% | - | - | 0.89 m/s, 110° | - | - |
| 1777958349 | 12.78° C | 76% | - | - | 0 m/s | - | - |
| 1777954749 | 12.22° C | 76% | - | - | 0.89 m/s, 280° | - | - |
| 1777951148 | 13.89° C | 67% | - | - | 0 m/s | - | - |
| 1777947548 | 13.89° C | 67% | - | - | 2.24 m/s, 130° | - | - |
| 1777943950 | 12.78° C | 71% | - | - | 2.24 m/s, 100° | - | - |
* Rain since midnight (hover to see other rain measurements)
** Current wind speed in m/s (hover to see current wind gust speed)